Time;durP1;ratioP1;P1;durP2;ratioP2;P2;SDS_P1;SDS_P2;PMS_P1;PMS_P2;Temp;Humidity;BMP_temperature;BMP_pressure;BME280_temperature;BME280_humidity;BME280_pressure;Samples;Min_cycle;Max_cycle;Signal;HPM_P1;HPM_P2
2023/09/04 00:01:55;;;;;;;0.28;0.28;;;12.90;99.90;;;;;;4981076;28;20434;-74
2023/09/04 00:04:22;;;;;;;0.20;0.20;;;12.90;99.90;;;;;;5006732;28;20084;-74
2023/09/04 00:06:47;;;;;;;0.20;0.20;;;12.80;99.90;;;;;;4979328;28;20082;-74
2023/09/04 00:09:15;;;;;;;0.30;0.30;;;12.80;99.90;;;;;;4972217;28;20043;-74
2023/09/04 00:11:40;;;;;;;0.40;0.40;;;12.80;99.90;;;;;;4992882;28;20121;-74
2023/09/04 00:14:06;;;;;;;0.40;0.40;;;12.80;99.90;;;;;;4986774;28;20145;-74
2023/09/04 00:16:32;;;;;;;0.40;0.40;;;12.80;99.90;;;;;;4988977;28;20118;-74
2023/09/04 00:18:57;;;;;;;0.30;0.30;;;12.80;99.90;;;;;;4980288;28;20699;-74
2023/09/04 00:21:23;;;;;;;0.22;0.22;;;12.70;99.90;;;;;;4983547;28;20065;-74
2023/09/04 00:23:49;;;;;;;0.40;0.40;;;12.70;99.90;;;;;;5007452;28;20061;-74
2023/09/04 00:26:15;;;;;;;0.32;0.32;;;12.60;99.90;;;;;;4982296;28;20049;-74
2023/09/04 00:28:41;;;;;;;0.47;0.47;;;12.60;99.90;;;;;;4985600;28;20663;-74
2023/09/04 00:31:06;;;;;;;0.30;0.30;;;12.60;99.90;;;;;;4989154;28;20054;-74
2023/09/04 00:33:32;;;;;;;0.30;0.30;;;12.60;99.90;;;;;;5006558;28;20046;-74
2023/09/04 00:35:58;;;;;;;0.63;0.63;;;12.50;99.90;;;;;;4990418;28;20133;-74
2023/09/04 00:38:24;;;;;;;0.30;0.30;;;12.50;99.90;;;;;;4989704;28;20049;-74
2023/09/04 00:40:49;;;;;;;0.47;0.47;;;12.50;99.90;;;;;;4988845;28;20064;-74
2023/09/04 00:43:15;;;;;;;0.40;0.40;;;12.50;99.90;;;;;;4996274;28;20165;-74
2023/09/04 00:45:42;;;;;;;0.20;0.20;;;12.50;99.90;;;;;;5001560;28;20057;-74
2023/09/04 00:48:08;;;;;;;0.30;0.30;;;12.40;99.90;;;;;;5008105;28;20806;-74
2023/09/04 00:50:35;;;;;;;0.22;0.22;;;12.40;99.90;;;;;;5002181;28;20042;-74
2023/09/04 00:53:04;;;;;;;0.30;0.30;;;12.40;99.90;;;;;;4996290;28;20119;-74
2023/09/04 00:55:30;;;;;;;0.22;0.22;;;12.30;99.90;;;;;;4989524;28;20096;-74
2023/09/04 00:57:56;;;;;;;0.22;0.22;;;12.30;99.90;;;;;;4993580;28;20061;-74
2023/09/04 01:00:25;;;;;;;0.20;0.20;;;12.30;99.90;;;;;;5013906;28;20060;-74
2023/09/04 01:02:51;;;;;;;0.20;0.20;;;12.20;99.90;;;;;;4988791;28;20057;-74
2023/09/04 01:05:17;;;;;;;0.20;0.20;;;12.20;99.90;;;;;;4997039;28;20415;-74
2023/09/04 01:07:43;;;;;;;0.40;0.40;;;12.20;99.90;;;;;;4988689;28;20066;-74
2023/09/04 01:10:10;;;;;;;0.30;0.30;;;12.20;99.90;;;;;;4989104;28;20042;-74
2023/09/04 01:12:46;;;;;;;0.30;0.30;;;12.10;99.90;;;;;;5001181;28;20058;-74
2023/09/04 01:15:12;;;;;;;0.20;0.20;;;12.10;99.90;;;;;;4995525;28;20119;-74
2023/09/04 01:17:38;;;;;;;0.35;0.35;;;12.10;99.90;;;;;;5012108;28;20127;-74
2023/09/04 01:20:33;;;;;;;0.28;0.28;;;12.10;99.90;;;;;;5009361;28;20606;-74
2023/09/04 01:22:59;;;;;;;0.38;0.38;;;12.00;99.90;;;;;;4989552;28;20153;-74
2023/09/04 01:25:44;;;;;;;0.30;0.30;;;12.00;99.90;;;;;;4994314;28;20558;-74
2023/09/04 01:28:20;;;;;;;0.20;0.20;;;12.00;99.90;;;;;;4990834;28;20053;-74
2023/09/04 01:31:20;;;;;;;0.40;0.40;;;12.00;99.90;;;;;;5012023;28;20054;-74
2023/09/04 01:33:52;;;;;;;0.30;0.30;;;11.90;99.90;;;;;;4986201;28;20061;-74
2023/09/04 01:36:21;;;;;;;0.50;0.50;;;11.90;99.90;;;;;;4993422;28;20050;-74
2023/09/04 01:38:47;;;;;;;0.30;0.30;;;11.80;99.90;;;;;;4982685;28;20077;-74
2023/09/04 01:41:13;;;;;;;0.30;0.30;;;11.70;99.90;;;;;;4997190;28;20053;-74
2023/09/04 01:43:39;;;;;;;0.40;0.40;;;11.60;99.90;;;;;;4983780;28;20793;-74
2023/09/04 01:46:05;;;;;;;0.30;0.30;;;11.60;99.90;;;;;;5000434;28;20054;-74
2023/09/04 01:48:30;;;;;;;0.50;0.50;;;11.50;99.90;;;;;;4987779;28;20038;-74
2023/09/04 01:50:56;;;;;;;0.40;0.40;;;11.50;99.90;;;;;;4993638;28;20081;-74
2023/09/04 01:53:22;;;;;;;0.30;0.30;;;11.50;99.90;;;;;;4989769;28;20112;-74
2023/09/04 01:55:48;;;;;;;0.30;0.30;;;11.50;99.90;;;;;;4990292;28;20042;-74
2023/09/04 01:58:14;;;;;;;0.30;0.30;;;11.50;99.90;;;;;;4995372;28;20049;-74
2023/09/04 02:00:39;;;;;;;0.38;0.38;;;11.50;99.90;;;;;;4979646;28;20463;-74
2023/09/04 02:03:05;;;;;;;0.30;0.30;;;11.50;99.90;;;;;;4991976;28;20057;-74
2023/09/04 02:05:30;;;;;;;0.32;0.32;;;11.50;99.90;;;;;;4984218;28;20050;-74
2023/09/04 02:07:56;;;;;;;0.30;0.30;;;11.40;99.90;;;;;;4985814;28;20085;-74
2023/09/04 02:10:23;;;;;;;0.20;0.20;;;11.50;99.90;;;;;;4977766;28;20057;-75
2023/09/04 02:12:49;;;;;;;0.30;0.30;;;11.40;99.90;;;;;;4976904;28;20125;-74
2023/09/04 02:15:16;;;;;;;0.30;0.30;;;11.50;99.90;;;;;;4992194;28;20129;-74
2023/09/04 02:17:41;;;;;;;0.30;0.30;;;11.40;99.90;;;;;;4986562;28;20540;-74
2023/09/04 02:20:08;;;;;;;0.50;0.50;;;11.40;99.90;;;;;;4993371;28;20057;-75
2023/09/04 02:22:34;;;;;;;0.77;0.77;;;11.40;99.90;;;;;;4983232;28;20046;-74
2023/09/04 02:24:59;;;;;;;0.20;0.20;;;11.30;99.90;;;;;;5003823;28;20065;-74
2023/09/04 02:27:25;;;;;;;0.47;0.47;;;11.30;99.90;;;;;;4985905;28;20042;-73
2023/09/04 02:29:50;;;;;;;0.30;0.30;;;11.30;99.90;;;;;;5005649;28;20589;-74
2023/09/04 02:32:16;;;;;;;0.50;0.50;;;11.20;99.90;;;;;;4990800;28;20046;-74
2023/09/04 02:34:42;;;;;;;0.52;0.52;;;11.20;99.90;;;;;;4982255;28;20510;-74
2023/09/04 02:37:07;;;;;;;0.20;0.20;;;11.20;99.90;;;;;;4988031;28;20058;-75
2023/09/04 02:39:33;;;;;;;0.20;0.20;;;11.20;99.90;;;;;;4988381;28;20049;-74
2023/09/04 02:41:59;;;;;;;0.30;0.30;;;11.20;99.90;;;;;;4982376;28;20042;-74
2023/09/04 02:44:28;;;;;;;0.40;0.40;;;11.20;99.90;;;;;;4974088;28;20089;-74
2023/09/04 02:46:53;;;;;;;0.40;0.40;;;11.20;99.90;;;;;;4976065;28;20081;-75
2023/09/04 02:49:19;;;;;;;0.25;0.25;;;11.20;99.90;;;;;;4990886;28;20117;-74
2023/09/04 02:51:44;;;;;;;0.32;0.32;;;11.10;99.90;;;;;;4998286;28;20041;-75
2023/09/04 02:54:10;;;;;;;0.20;0.20;;;11.10;99.90;;;;;;4997422;28;20068;-75
2023/09/04 02:56:35;;;;;;;0.30;0.30;;;11.10;99.90;;;;;;4990572;28;20058;-74
2023/09/04 02:59:01;;;;;;;0.30;0.30;;;11.10;99.90;;;;;;4989271;28;20046;-74
2023/09/04 03:01:27;;;;;;;0.30;0.30;;;11.00;99.90;;;;;;4978251;28;20049;-74
2023/09/04 03:03:52;;;;;;;0.40;0.40;;;11.00;99.90;;;;;;4985569;28;20053;-74
2023/09/04 03:06:18;;;;;;;0.40;0.40;;;11.00;99.90;;;;;;4984518;28;20245;-74
2023/09/04 03:08:44;;;;;;;0.20;0.20;;;11.00;99.90;;;;;;4979517;28;20078;-75
2023/09/04 03:11:10;;;;;;;0.30;0.30;;;11.00;99.90;;;;;;4986698;28;20073;-74
2023/09/04 03:13:37;;;;;;;0.40;0.40;;;10.90;99.90;;;;;;4990311;28;20054;-74
2023/09/04 03:16:05;;;;;;;0.40;0.40;;;10.90;99.90;;;;;;4994166;28;20041;-74
2023/09/04 03:18:31;;;;;;;0.30;0.30;;;10.90;99.90;;;;;;4993094;28;20129;-75
2023/09/04 03:20:56;;;;;;;0.30;0.30;;;11.00;99.90;;;;;;4986447;28;20110;-74
2023/09/04 03:23:22;;;;;;;0.32;0.32;;;10.90;99.90;;;;;;4970371;28;20082;-74
2023/09/04 03:25:47;;;;;;;0.30;0.30;;;10.90;99.90;;;;;;5002233;28;20439;-74
2023/09/04 03:28:13;;;;;;;0.30;0.30;;;10.80;99.90;;;;;;4983216;28;20046;-74
2023/09/04 03:30:39;;;;;;;0.30;0.30;;;10.80;99.90;;;;;;4987552;28;20518;-74
2023/09/04 03:33:04;;;;;;;0.30;0.30;;;10.80;99.90;;;;;;4986774;28;20038;-74
2023/09/04 03:35:30;;;;;;;0.40;0.40;;;10.80;99.90;;;;;;4987861;28;20046;-74
2023/09/04 03:37:55;;;;;;;0.30;0.30;;;10.80;99.90;;;;;;4989667;28;20054;-74
2023/09/04 03:40:24;;;;;;;0.30;0.30;;;10.80;99.90;;;;;;4988330;28;20050;-74
2023/09/04 03:42:52;;;;;;;0.30;0.30;;;10.80;99.90;;;;;;4989847;28;20046;-74
2023/09/04 03:45:18;;;;;;;;;;;10.70;99.90;;;;;;5003131;28;20050;-74
2023/09/04 03:47:46;;;;;;;0.22;0.22;;;10.70;99.90;;;;;;4984958;28;19921;-74
2023/09/04 03:50:13;;;;;;;0.30;0.30;;;10.60;99.90;;;;;;4975064;28;20053;-74
2023/09/04 03:52:41;;;;;;;0.30;0.30;;;10.60;99.90;;;;;;4990265;28;20051;-74
2023/09/04 03:55:09;;;;;;;0.32;0.32;;;10.60;99.90;;;;;;4990487;28;20120;-74
2023/09/04 03:57:36;;;;;;;0.30;0.30;;;10.60;99.90;;;;;;4980457;28;20050;-74
2023/09/04 04:00:03;;;;;;;0.30;0.30;;;10.50;99.90;;;;;;4978036;28;20080;-73
2023/09/04 04:02:30;;;;;;;0.40;0.40;;;10.50;99.90;;;;;;4981321;28;20058;-73
2023/09/04 04:04:56;;;;;;;0.40;0.40;;;10.50;99.90;;;;;;4985256;28;20053;-73
2023/09/04 04:07:21;;;;;;;0.30;0.30;;;10.50;99.90;;;;;;4985378;28;20066;-73
2023/09/04 04:09:47;;;;;;;0.40;0.40;;;10.40;99.90;;;;;;5002500;28;20115;-72
2023/09/04 04:12:16;;;;;;;0.32;0.32;;;10.40;99.90;;;;;;4991401;28;20050;-73
2023/09/04 04:14:42;;;;;;;0.40;0.40;;;10.30;99.90;;;;;;4986971;28;20042;-73
2023/09/04 04:17:08;;;;;;;0.40;0.40;;;10.30;99.90;;;;;;4999845;28;20046;-72
2023/09/04 04:19:34;;;;;;;0.50;0.50;;;10.30;99.90;;;;;;4980980;28;20046;-73
2023/09/04 04:22:00;;;;;;;0.70;0.70;;;10.30;99.90;;;;;;4988915;28;20453;-73
2023/09/04 04:24:27;;;;;;;0.43;0.43;;;10.20;99.90;;;;;;4990213;28;20046;-73
2023/09/04 04:26:53;;;;;;;0.55;0.55;;;10.20;99.90;;;;;;4997137;28;20072;-73
2023/09/04 04:29:18;;;;;;;0.30;0.30;;;10.20;99.90;;;;;;4982137;28;20736;-72
2023/09/04 04:31:44;;;;;;;0.30;0.30;;;10.30;99.90;;;;;;5001794;28;20054;-73
2023/09/04 04:34:10;;;;;;;0.45;0.45;;;10.20;99.90;;;;;;4982504;28;20491;-73
2023/09/04 04:36:36;;;;;;;0.40;0.40;;;10.20;99.90;;;;;;4989172;28;20108;-73
2023/09/04 04:39:03;;;;;;;0.40;0.40;;;10.20;99.90;;;;;;4986082;28;20049;-73
2023/09/04 04:41:31;;;;;;;0.30;0.30;;;10.20;99.90;;;;;;5004664;28;20121;-73
2023/09/04 04:43:56;;;;;;;0.40;0.40;;;10.20;99.90;;;;;;5000236;28;20063;-73
2023/09/04 04:46:22;;;;;;;0.30;0.30;;;10.10;99.90;;;;;;4992533;28;20084;-73
2023/09/04 04:48:48;;;;;;;0.30;0.30;;;10.10;99.90;;;;;;4985224;28;20053;-73
2023/09/04 04:51:14;;;;;;;0.40;0.40;;;10.10;99.90;;;;;;4995931;28;20451;-74
2023/09/04 04:53:40;;;;;;;0.32;0.32;;;10.20;99.90;;;;;;4987487;28;20042;-74
2023/09/04 04:56:05;;;;;;;0.22;0.22;;;10.10;99.90;;;;;;4984831;28;20050;-74
2023/09/04 04:58:31;;;;;;;0.40;0.40;;;10.10;99.90;;;;;;4996206;28;20744;-73
2023/09/04 05:00:57;;;;;;;0.30;0.30;;;10.00;99.90;;;;;;5005125;28;20088;-73
2023/09/04 05:03:23;;;;;;;0.40;0.40;;;10.00;99.90;;;;;;4987140;28;20049;-73
2023/09/04 05:05:49;;;;;;;0.40;0.40;;;10.00;99.90;;;;;;4988660;28;20080;-73
2023/09/04 05:08:14;;;;;;;0.43;0.43;;;10.00;99.90;;;;;;4986153;28;20108;-74
2023/09/04 05:10:40;;;;;;;0.40;0.40;;;10.00;99.90;;;;;;5006463;28;20127;-74
2023/09/04 05:13:06;;;;;;;0.40;0.40;;;10.00;99.90;;;;;;4992774;28;20073;-74
2023/09/04 05:15:31;;;;;;;0.30;0.30;;;10.00;99.90;;;;;;4995104;28;20040;-74
2023/09/04 05:17:57;;;;;;;0.35;0.35;;;10.00;99.90;;;;;;4995875;28;20120;-74
2023/09/04 05:20:23;;;;;;;0.30;0.30;;;10.00;99.90;;;;;;4983531;28;20085;-74
2023/09/04 05:22:48;;;;;;;0.52;0.52;;;10.00;99.90;;;;;;4995311;28;20080;-74
2023/09/04 05:25:14;;;;;;;0.45;0.40;;;10.00;99.90;;;;;;5003193;28;20082;-74
2023/09/04 05:27:40;;;;;;;0.30;0.30;;;10.00;99.90;;;;;;5003475;28;20029;-74
2023/09/04 05:30:06;;;;;;;0.40;0.40;;;10.00;99.90;;;;;;4999886;28;20042;-74
2023/09/04 05:32:32;;;;;;;0.28;0.28;;;10.00;99.90;;;;;;4992657;28;20525;-73
2023/09/04 05:34:57;;;;;;;0.30;0.30;;;10.00;99.90;;;;;;4991917;28;20348;-74
2023/09/04 05:37:23;;;;;;;0.30;0.30;;;10.10;99.90;;;;;;4988813;28;20094;-74
2023/09/04 05:39:49;;;;;;;0.30;0.30;;;10.20;99.90;;;;;;4986115;28;20046;-75
2023/09/04 05:42:14;;;;;;;0.60;0.60;;;10.20;99.90;;;;;;5003695;28;20099;-73
2023/09/04 05:44:40;;;;;;;0.20;0.20;;;10.30;99.90;;;;;;4982580;28;20042;-73
2023/09/04 05:47:06;;;;;;;0.38;0.38;;;10.30;99.90;;;;;;5008897;28;20048;-74
2023/09/04 05:49:32;;;;;;;0.30;0.30;;;10.40;99.90;;;;;;5001295;28;20049;-74
2023/09/04 05:51:57;;;;;;;0.30;0.30;;;10.50;99.90;;;;;;4984277;28;20053;-74
2023/09/04 05:54:23;;;;;;;0.40;0.40;;;10.50;99.90;;;;;;5004993;28;20430;-73
2023/09/04 05:56:49;;;;;;;0.30;0.30;;;10.60;99.90;;;;;;4993749;28;20116;-74
2023/09/04 05:59:15;;;;;;;0.30;0.30;;;10.70;99.90;;;;;;4992566;28;20049;-74
2023/09/04 06:01:40;;;;;;;0.40;0.40;;;10.80;99.90;;;;;;5010215;28;20422;-74
2023/09/04 06:04:06;;;;;;;0.22;0.22;;;10.90;99.90;;;;;;5005362;28;20060;-74
2023/09/04 06:06:32;;;;;;;0.30;0.30;;;11.00;99.90;;;;;;5005428;28;20038;-73
2023/09/04 06:08:57;;;;;;;0.35;0.35;;;11.10;99.90;;;;;;5009217;28;20053;-74
2023/09/04 06:11:23;;;;;;;0.38;0.38;;;11.20;99.90;;;;;;4981171;28;20716;-74
2023/09/04 06:13:49;;;;;;;0.35;0.35;;;11.30;99.90;;;;;;4989797;28;20086;-74
2023/09/04 06:16:19;;;;;;;0.32;0.32;;;11.30;99.90;;;;;;4983496;28;20103;-74
2023/09/04 06:18:44;;;;;;;0.30;0.30;;;11.40;99.90;;;;;;5006013;28;20077;-74
2023/09/04 06:21:10;;;;;;;0.40;0.40;;;11.50;99.90;;;;;;4984595;28;20050;-74
2023/09/04 06:23:35;;;;;;;0.30;0.30;;;11.60;99.90;;;;;;4987973;28;20085;-74
2023/09/04 06:26:02;;;;;;;0.30;0.30;;;11.70;99.90;;;;;;4986891;28;20426;-74
2023/09/04 06:28:28;;;;;;;0.30;0.30;;;11.80;99.90;;;;;;4989357;28;20046;-74
2023/09/04 06:30:55;;;;;;;0.30;0.30;;;11.90;99.90;;;;;;5008833;28;20077;-74
2023/09/04 06:33:23;;;;;;;0.50;0.50;;;12.10;99.90;;;;;;4993357;28;20057;-74
2023/09/04 06:35:49;;;;;;;0.30;0.30;;;12.20;99.90;;;;;;4972582;28;20050;-74
2023/09/04 06:38:15;;;;;;;0.57;0.57;;;12.30;99.90;;;;;;4966595;28;20691;-74
2023/09/04 06:40:42;;;;;;;0.43;0.43;;;12.40;99.90;;;;;;4973415;28;20165;-74
2023/09/04 06:43:09;;;;;;;0.30;0.30;;;12.40;99.90;;;;;;4970031;28;20057;-74
2023/09/04 06:45:37;;;;;;;0.45;0.45;;;12.60;99.90;;;;;;4987862;28;20201;-74
2023/09/04 06:48:04;;;;;;;0.30;0.30;;;12.70;99.90;;;;;;4974088;28;20058;-73
2023/09/04 06:50:30;;;;;;;0.30;0.30;;;12.70;99.90;;;;;;4972522;28;20103;-74
2023/09/04 06:52:56;;;;;;;0.30;0.30;;;12.80;99.90;;;;;;4961864;28;20053;-73
2023/09/04 06:55:21;;;;;;;0.30;0.30;;;13.00;99.90;;;;;;4956278;28;20062;-73
2023/09/04 06:57:47;;;;;;;0.47;0.47;;;13.10;99.90;;;;;;4970337;28;21924;-74
2023/09/04 07:00:13;;;;;;;0.40;0.40;;;13.20;99.90;;;;;;4985195;28;20088;-74
2023/09/04 07:02:39;;;;;;;0.30;0.30;;;13.40;99.90;;;;;;4990529;28;20069;-73
2023/09/04 07:05:07;;;;;;;0.30;0.30;;;13.60;99.90;;;;;;4978273;28;20058;-74
2023/09/04 07:07:35;;;;;;;0.30;0.30;;;13.80;99.90;;;;;;4982167;28;20053;-74
2023/09/04 07:10:02;;;;;;;0.30;0.30;;;14.00;99.90;;;;;;4971235;28;20118;-77
2023/09/04 07:12:29;;;;;;;0.30;0.30;;;14.30;99.90;;;;;;4968649;28;20050;-75
2023/09/04 07:14:55;;;;;;;0.63;0.63;;;14.50;99.90;;;;;;4986033;28;20065;-74
2023/09/04 07:17:21;;;;;;;0.30;0.30;;;14.70;99.90;;;;;;4995945;28;20042;-75
2023/09/04 07:19:46;;;;;;;0.40;0.40;;;15.00;99.90;;;;;;4988820;28;20046;-75
2023/09/04 07:22:12;;;;;;;0.30;0.30;;;15.20;99.90;;;;;;5004419;28;20663;-74
2023/09/04 07:24:37;;;;;;;0.30;0.30;;;15.40;99.90;;;;;;5004033;28;20545;-74
2023/09/04 07:27:03;;;;;;;0.45;0.45;;;15.70;99.90;;;;;;5001214;28;20041;-75
2023/09/04 07:29:30;;;;;;;0.60;0.60;;;15.90;99.90;;;;;;4981374;28;20405;-74
2023/09/04 07:31:56;;;;;;;0.40;0.40;;;16.20;99.90;;;;;;5001338;28;20058;-71
2023/09/04 07:34:23;;;;;;;0.45;0.45;;;16.40;99.90;;;;;;4997933;28;20056;-72
2023/09/04 07:36:49;;;;;;;0.40;0.40;;;16.50;99.90;;;;;;5008562;28;20045;-72
2023/09/04 07:39:14;;;;;;;0.40;0.40;;;16.70;99.90;;;;;;4989061;28;20100;-71
2023/09/04 07:41:40;;;;;;;0.57;0.57;;;16.90;99.90;;;;;;5004729;28;20545;-72
2023/09/04 07:44:06;;;;;;;0.30;0.30;;;17.10;99.90;;;;;;4958322;28;20153;-72
2023/09/04 07:46:31;;;;;;;1.25;1.25;;;17.30;99.90;;;;;;4995887;28;20038;-72
2023/09/04 07:48:57;;;;;;;0.57;0.57;;;17.60;99.90;;;;;;4970095;28;20617;-72
2023/09/04 07:51:22;;;;;;;0.40;0.40;;;17.80;99.90;;;;;;4984085;28;20112;-72
2023/09/04 07:53:50;;;;;;;0.40;0.40;;;18.10;99.90;;;;;;4969244;28;20061;-72
2023/09/04 07:56:16;;;;;;;0.40;0.40;;;18.30;99.90;;;;;;4974521;28;20384;-72
2023/09/04 07:58:41;;;;;;;1.08;0.95;;;18.60;99.90;;;;;;4983963;28;20107;-72
2023/09/04 08:01:13;;;;;;;1.13;1.00;;;18.80;99.90;;;;;;4988527;28;20177;-72
2023/09/04 08:03:40;;;;;;;0.43;0.43;;;19.00;99.90;;;;;;4967072;28;20061;-72
2023/09/04 08:06:06;;;;;;;0.35;0.35;;;19.10;99.90;;;;;;4997053;28;20129;-72
2023/09/04 08:08:31;;;;;;;0.38;0.38;;;19.40;99.90;;;;;;4989375;28;20129;-72
2023/09/04 08:10:57;;;;;;;0.50;0.50;;;19.60;99.90;;;;;;5005287;28;20120;-72
2023/09/04 08:13:23;;;;;;;0.30;0.30;;;19.80;99.90;;;;;;4975968;28;20120;-72
2023/09/04 08:15:48;;;;;;;0.30;0.30;;;20.00;99.90;;;;;;4972017;28;20049;-72
2023/09/04 08:18:14;;;;;;;0.30;0.30;;;20.30;99.90;;;;;;4979754;28;20047;-72
2023/09/04 08:20:40;;;;;;;0.45;0.45;;;20.50;99.90;;;;;;4985326;28;20042;-72
2023/09/04 08:23:07;;;;;;;0.28;0.28;;;20.70;99.90;;;;;;4994571;28;20125;-72
2023/09/04 08:25:33;;;;;;;0.47;0.47;;;21.00;99.90;;;;;;5004697;28;20454;-72
2023/09/04 08:27:59;;;;;;;0.70;0.70;;;21.10;99.90;;;;;;5007116;28;20046;-73
2023/09/04 08:30:25;;;;;;;0.70;0.70;;;21.20;99.90;;;;;;4995656;28;20178;-72
2023/09/04 08:32:50;;;;;;;0.68;0.68;;;21.20;99.90;;;;;;4989932;28;20091;-73
2023/09/04 08:35:18;;;;;;;0.60;0.60;;;21.30;99.90;;;;;;4990923;28;20049;-72
2023/09/04 08:37:43;;;;;;;0.57;0.57;;;21.40;99.90;;;;;;4988828;28;20058;-74
2023/09/04 08:40:09;;;;;;;3.78;1.15;;;21.50;99.90;;;;;;4987278;28;20335;-74
2023/09/04 08:42:38;;;;;;;0.43;0.43;;;21.70;99.90;;;;;;4980445;28;20060;-74
2023/09/04 08:45:07;;;;;;;0.85;0.85;;;21.90;99.90;;;;;;4974735;28;20101;-74
2023/09/04 08:47:38;;;;;;;0.90;0.90;;;22.10;99.90;;;;;;4996359;28;20105;-74
2023/09/04 08:50:04;;;;;;;0.70;0.70;;;22.30;99.90;;;;;;4975154;28;20054;-73
2023/09/04 08:52:30;;;;;;;0.60;0.60;;;22.50;99.90;;;;;;4961656;28;20064;-73
2023/09/04 08:54:56;;;;;;;0.30;0.30;;;22.70;99.90;;;;;;4967596;28;20053;-73
2023/09/04 08:57:25;;;;;;;0.50;0.50;;;22.80;99.90;;;;;;4973379;28;20108;-73
2023/09/04 08:59:50;;;;;;;3.72;0.73;;;22.90;99.90;;;;;;4964171;28;20046;-73
2023/09/04 09:02:16;;;;;;;0.55;0.55;;;23.10;99.90;;;;;;4968741;28;20499;-73
2023/09/04 09:04:42;;;;;;;0.70;0.70;;;23.20;99.90;;;;;;4973375;28;20096;-73
2023/09/04 09:07:10;;;;;;;0.93;0.93;;;23.40;99.90;;;;;;4963528;28;20061;-73
2023/09/04 09:09:39;;;;;;;0.30;0.30;;;23.50;99.90;;;;;;4963339;28;20468;-73
2023/09/04 09:12:06;;;;;;;0.30;0.30;;;23.70;99.90;;;;;;4986009;28;20054;-73
2023/09/04 09:14:32;;;;;;;1.00;1.00;;;23.80;99.90;;;;;;4987791;28;20046;-73
2023/09/04 09:17:05;;;;;;;0.63;0.63;;;24.00;99.90;;;;;;4978807;28;20082;-73
2023/09/04 09:19:35;;;;;;;0.30;0.30;;;24.20;99.90;;;;;;4991596;28;20041;-73
2023/09/04 09:22:14;;;;;;;0.65;0.65;;;24.30;99.90;;;;;;5004522;28;20057;-73
2023/09/04 09:25:03;;;;;;;1.40;0.95;;;24.40;99.90;;;;;;4991448;28;20046;-73
2023/09/04 09:27:31;;;;;;;0.90;0.60;;;24.50;99.90;;;;;;4990304;28;20046;-74
2023/09/04 09:30:01;;;;;;;0.50;0.50;;;24.60;99.90;;;;;;4989951;28;20478;-74
2023/09/04 09:32:32;;;;;;;0.50;0.50;;;24.80;99.90;;;;;;4999571;28;20052;-74
2023/09/04 09:34:59;;;;;;;0.85;0.85;;;24.90;99.90;;;;;;5000138;28;20058;-74
2023/09/04 09:37:26;;;;;;;0.50;0.50;;;25.00;99.90;;;;;;4984667;28;20160;-74
2023/09/04 09:39:52;;;;;;;0.52;0.52;;;25.20;99.90;;;;;;4999651;28;20430;-75
2023/09/04 09:42:21;;;;;;;0.32;0.32;;;25.40;99.90;;;;;;4985948;28;20046;-74
2023/09/04 09:44:48;;;;;;;0.95;0.65;;;25.30;99.90;;;;;;4984869;28;20820;-74
2023/09/04 09:47:14;;;;;;;0.40;0.40;;;25.30;99.90;;;;;;4984705;28;20041;-74
2023/09/04 09:49:40;;;;;;;0.50;0.50;;;25.30;99.90;;;;;;4980300;28;20828;-75
2023/09/04 09:52:07;;;;;;;0.40;0.40;;;25.60;99.90;;;;;;4971028;28;20053;-74
2023/09/04 09:54:41;;;;;;;0.30;0.30;;;25.70;99.90;;;;;;4967999;28;20069;-74
2023/09/04 09:57:16;;;;;;;0.60;0.60;;;25.80;99.90;;;;;;4966025;28;20054;-74
2023/09/04 09:59:44;;;;;;;0.22;0.22;;;25.90;99.90;;;;;;4981505;28;20562;-74
2023/09/04 10:02:15;;;;;;;0.40;0.40;;;26.00;99.90;;;;;;4952509;28;20117;-74
2023/09/04 10:04:42;;;;;;;0.50;0.50;;;26.20;99.90;;;;;;4964022;28;20094;-74
2023/09/04 10:07:09;;;;;;;;;;;26.50;99.90;;;;;;4947423;28;20577;-73
2023/09/04 10:09:42;;;;;;;0.40;0.40;;;26.60;99.90;;;;;;4947179;28;19930;-74
2023/09/04 10:12:16;;;;;;;0.30;0.30;;;26.70;99.90;;;;;;4961878;28;20133;-74
2023/09/04 10:14:44;;;;;;;0.82;0.82;;;26.90;99.90;;;;;;4959936;28;20058;-73
2023/09/04 10:17:28;;;;;;;0.30;0.30;;;26.80;99.90;;;;;;4948919;28;20427;-74
2023/09/04 10:19:58;;;;;;;1.17;0.65;;;26.90;99.90;;;;;;4945944;28;20068;-73
2023/09/04 10:22:33;;;;;;;0.70;0.70;;;27.00;99.90;;;;;;4963529;28;20055;-74
2023/09/04 10:25:19;;;;;;;0.20;0.20;;;27.10;99.90;;;;;;4945710;28;20517;-74
2023/09/04 10:27:50;;;;;;;0.50;0.50;;;27.00;99.90;;;;;;4964112;28;20452;-74
2023/09/04 10:30:20;;;;;;;0.32;0.32;;;26.80;99.90;;;;;;4982308;28;20080;-77
2023/09/04 10:32:46;;;;;;;0.50;0.50;;;26.70;99.90;;;;;;4967598;28;20054;-74
2023/09/04 10:35:12;;;;;;;0.50;0.50;;;26.50;99.90;;;;;;4966058;28;20043;-74
2023/09/04 10:37:37;;;;;;;0.30;0.30;;;26.30;99.90;;;;;;4965033;28;20076;-74
2023/09/04 10:40:07;;;;;;;0.35;0.35;;;26.20;99.90;;;;;;4965387;28;21487;-74
2023/09/04 10:42:33;;;;;;;0.60;0.60;;;26.30;99.90;;;;;;4979756;28;20093;-74
2023/09/04 10:45:14;;;;;;;0.50;0.50;;;26.30;99.90;;;;;;4965623;28;20136;-74
2023/09/04 10:47:45;;;;;;;0.52;0.52;;;26.50;99.90;;;;;;4965163;28;20117;-74
2023/09/04 10:50:31;;;;;;;0.70;0.70;;;26.70;99.90;;;;;;4964037;28;20132;-74
2023/09/04 10:53:00;;;;;;;0.50;0.50;;;26.80;99.90;;;;;;4981043;28;20504;-74
2023/09/04 10:55:27;;;;;;;0.40;0.40;;;26.80;99.90;;;;;;4962398;28;20054;-74
2023/09/04 10:58:01;;;;;;;0.35;0.35;;;27.00;99.90;;;;;;4963479;28;20097;-74
2023/09/04 11:00:32;;;;;;;0.63;0.63;;;27.00;99.90;;;;;;4966803;28;20212;-74
2023/09/04 11:03:22;;;;;;;0.68;0.68;;;26.90;99.90;;;;;;4982706;28;20056;-74
2023/09/04 11:06:04;;;;;;;0.77;0.77;;;27.00;99.90;;;;;;4964514;28;21306;-74
2023/09/04 11:08:31;;;;;;;0.73;0.73;;;27.00;99.90;;;;;;4963509;28;22473;-74
2023/09/04 11:11:02;;;;;;;0.47;0.47;;;27.20;99.90;;;;;;4979370;28;20038;-74
2023/09/04 11:13:28;;;;;;;0.30;0.30;;;27.20;99.90;;;;;;4964117;28;20076;-74
2023/09/04 11:15:57;;;;;;;0.55;0.55;;;27.30;99.90;;;;;;4965155;28;20522;-74
2023/09/04 11:18:28;;;;;;;0.63;0.63;;;27.40;99.90;;;;;;4963705;28;20111;-75
2023/09/04 11:20:55;;;;;;;0.30;0.30;;;27.30;99.90;;;;;;4945632;28;20050;-74
2023/09/04 11:23:24;;;;;;;0.40;0.40;;;27.30;99.90;;;;;;4975848;28;20058;-74
2023/09/04 11:25:52;;;;;;;0.40;0.40;;;27.40;99.90;;;;;;4975792;28;20045;-74
2023/09/04 11:28:23;;;;;;;0.30;0.30;;;27.50;99.90;;;;;;4963422;28;20054;-75
2023/09/04 11:30:57;;;;;;;0.30;0.30;;;27.60;99.90;;;;;;4963444;28;20061;-74
2023/09/04 11:33:27;;;;;;;0.38;0.38;;;27.70;99.90;;;;;;4961254;28;20062;-74
2023/09/04 11:36:01;;;;;;;0.40;0.40;;;27.70;99.90;;;;;;4963992;28;20565;-74
2023/09/04 11:38:31;;;;;;;0.43;0.43;;;27.60;99.90;;;;;;4964841;28;20112;-74
2023/09/04 11:40:59;;;;;;;0.43;0.43;;;27.60;99.90;;;;;;4980207;28;20054;-74
2023/09/04 11:43:27;;;;;;;0.40;0.40;;;27.70;99.90;;;;;;4972920;28;20096;-74
2023/09/04 11:45:57;;;;;;;0.88;0.88;;;27.50;99.90;;;;;;4965686;28;20054;-74
2023/09/04 11:48:27;;;;;;;1.55;0.93;;;27.30;99.90;;;;;;4962571;28;20050;-74
2023/09/04 11:50:53;;;;;;;0.60;0.60;;;27.20;99.90;;;;;;4962793;28;20538;-74
2023/09/04 11:53:23;;;;;;;0.52;0.52;;;27.10;99.90;;;;;;4962871;28;20081;-74
2023/09/04 11:55:52;;;;;;;0.60;0.60;;;27.10;99.90;;;;;;4965156;28;20104;-74
2023/09/04 11:58:18;;;;;;;0.88;0.88;;;27.20;99.90;;;;;;4964405;28;21416;-74
2023/09/04 12:00:45;;;;;;;0.73;0.73;;;27.20;99.90;;;;;;4974872;28;20070;-74
2023/09/04 12:03:11;;;;;;;0.40;0.40;;;27.30;99.90;;;;;;4961347;28;20051;-74
2023/09/04 12:05:37;;;;;;;0.40;0.40;;;27.50;99.90;;;;;;4944645;28;20046;-75
2023/09/04 12:08:04;;;;;;;0.70;0.70;;;27.40;99.90;;;;;;4962860;28;20125;-74
2023/09/04 12:10:33;;;;;;;0.80;0.80;;;27.50;99.90;;;;;;4962052;28;20233;-74
2023/09/04 12:12:58;;;;;;;0.63;0.63;;;27.50;99.90;;;;;;4966532;28;20485;-74
2023/09/04 12:15:26;;;;;;;0.50;0.50;;;27.70;99.90;;;;;;4960229;28;20133;-74
2023/09/04 12:17:52;;;;;;;0.52;0.52;;;27.80;99.90;;;;;;4962729;28;20054;-74
2023/09/04 12:20:17;;;;;;;0.63;0.63;;;27.90;99.80;;;;;;4946349;28;20058;-74
2023/09/04 12:22:56;;;;;;;0.30;0.30;;;27.90;99.90;;;;;;4961622;28;20057;-74
2023/09/04 12:25:25;;;;;;;0.50;0.50;;;27.90;99.90;;;;;;4977549;28;20100;-75
2023/09/04 12:27:51;;;;;;;0.80;0.80;;;27.90;99.80;;;;;;4979614;28;20046;-74
2023/09/04 12:30:17;;;;;;;0.68;0.68;;;28.00;99.90;;;;;;4964276;28;20062;-74
2023/09/04 12:32:43;;;;;;;0.50;0.50;;;28.10;99.20;;;;;;4978924;28;20129;-75
2023/09/04 12:35:09;;;;;;;0.60;0.60;;;28.20;97.40;;;;;;4964412;28;20788;-74
2023/09/04 12:37:36;;;;;;;0.43;0.43;;;28.40;98.20;;;;;;4978535;28;20423;-74
2023/09/04 12:40:03;;;;;;;0.28;0.28;;;28.30;98.50;;;;;;4962850;28;20101;-75
2023/09/04 12:42:28;;;;;;;0.55;0.55;;;28.30;98.20;;;;;;4964142;28;20057;-74
2023/09/04 12:44:54;;;;;;;0.68;0.68;;;28.30;98.70;;;;;;4980450;28;20050;-74
2023/09/04 12:47:21;;;;;;;0.60;0.60;;;28.20;97.80;;;;;;4961084;28;20050;-74
2023/09/04 12:49:48;;;;;;;0.50;0.50;;;27.90;97.70;;;;;;4978181;28;20185;-74